sensor_id;sensor_type;location;lat;lon;timestamp;temperature;humidity
76269;DHT22;65088;52.352;4.846;2022-11-20T00:01:44;-0.40;69.80
76269;DHT22;65088;52.352;4.846;2022-11-20T00:04:13;-0.40;69.70
76269;DHT22;65088;52.352;4.846;2022-11-20T00:06:43;-0.30;69.60
76269;DHT22;65088;52.352;4.846;2022-11-20T00:09:15;-0.40;69.60
76269;DHT22;65088;52.352;4.846;2022-11-20T00:11:44;-0.40;69.50
76269;DHT22;65088;52.352;4.846;2022-11-20T00:14:13;-0.40;69.60
76269;DHT22;65088;52.352;4.846;2022-11-20T00:16:43;-0.50;69.70
76269;DHT22;65088;52.352;4.846;2022-11-20T00:19:12;-0.50;69.60
76269;DHT22;65088;52.352;4.846;2022-11-20T00:21:41;-0.50;69.80
76269;DHT22;65088;52.352;4.846;2022-11-20T00:24:14;-0.40;69.80
76269;DHT22;65088;52.352;4.846;2022-11-20T00:26:43;-0.40;69.60
76269;DHT22;65088;52.352;4.846;2022-11-20T00:29:13;-0.40;69.60
76269;DHT22;65088;52.352;4.846;2022-11-20T00:31:42;-0.40;69.60
76269;DHT22;65088;52.352;4.846;2022-11-20T00:34:11;-0.40;69.70
76269;DHT22;65088;52.352;4.846;2022-11-20T00:36:41;-0.40;69.70
76269;DHT22;65088;52.352;4.846;2022-11-20T00:39:10;-0.40;69.80
76269;DHT22;65088;52.352;4.846;2022-11-20T00:41:42;-0.40;69.70
76269;DHT22;65088;52.352;4.846;2022-11-20T00:44:11;-0.50;69.80
76269;DHT22;65088;52.352;4.846;2022-11-20T00:46:41;-0.50;69.80
76269;DHT22;65088;52.352;4.846;2022-11-20T00:49:10;-0.60;69.80
76269;DHT22;65088;52.352;4.846;2022-11-20T00:51:40;-0.70;69.80
76269;DHT22;65088;52.352;4.846;2022-11-20T00:54:10;-0.70;69.90
76269;DHT22;65088;52.352;4.846;2022-11-20T00:56:42;-0.70;69.90
76269;DHT22;65088;52.352;4.846;2022-11-20T00:59:11;-0.70;70.00
76269;DHT22;65088;52.352;4.846;2022-11-20T01:01:41;-0.70;70.00
76269;DHT22;65088;52.352;4.846;2022-11-20T01:04:10;-0.70;70.00
76269;DHT22;65088;52.352;4.846;2022-11-20T01:06:40;-0.80;69.90
76269;DHT22;65088;52.352;4.846;2022-11-20T01:09:11;-0.80;70.00
76269;DHT22;65088;52.352;4.846;2022-11-20T01:11:45;-0.80;70.00
76269;DHT22;65088;52.352;4.846;2022-11-20T01:14:16;-0.80;70.10
76269;DHT22;65088;52.352;4.846;2022-11-20T01:16:49;-0.80;70.00
76269;DHT22;65088;52.352;4.846;2022-11-20T01:19:20;-0.80;69.90
76269;DHT22;65088;52.352;4.846;2022-11-20T01:21:51;-0.90;70.00
76269;DHT22;65088;52.352;4.846;2022-11-20T01:24:22;-0.90;70.20
76269;DHT22;65088;52.352;4.846;2022-11-20T01:26:54;-0.80;70.20
76269;DHT22;65088;52.352;4.846;2022-11-20T01:29:24;-0.80;70.10
76269;DHT22;65088;52.352;4.846;2022-11-20T01:31:54;-0.80;70.10
76269;DHT22;65088;52.352;4.846;2022-11-20T01:34:23;-0.80;70.10
76269;DHT22;65088;52.352;4.846;2022-11-20T01:36:52;-0.80;70.00
76269;DHT22;65088;52.352;4.846;2022-11-20T01:39:23;-0.80;70.00
76269;DHT22;65088;52.352;4.846;2022-11-20T01:41:55;-0.90;70.00
76269;DHT22;65088;52.352;4.846;2022-11-20T01:44:47;-0.90;70.10
76269;DHT22;65088;52.352;4.846;2022-11-20T01:47:22;-1.00;70.10
76269;DHT22;65088;52.352;4.846;2022-11-20T01:49:56;-1.00;70.20
76269;DHT22;65088;52.352;4.846;2022-11-20T01:52:30;-1.10;70.20
76269;DHT22;65088;52.352;4.846;2022-11-20T01:55:04;-1.00;70.30
76269;DHT22;65088;52.352;4.846;2022-11-20T01:57:38;-1.10;70.30
76269;DHT22;65088;52.352;4.846;2022-11-20T02:00:12;-1.10;70.40
76269;DHT22;65088;52.352;4.846;2022-11-20T02:02:45;-1.10;70.50
76269;DHT22;65088;52.352;4.846;2022-11-20T02:05:20;-1.00;70.50
76269;DHT22;65088;52.352;4.846;2022-11-20T02:07:50;-1.00;70.50
76269;DHT22;65088;52.352;4.846;2022-11-20T02:10:20;-1.00;70.40
76269;DHT22;65088;52.352;4.846;2022-11-20T02:12:52;-1.00;70.40
76269;DHT22;65088;52.352;4.846;2022-11-20T02:15:34;-1.10;70.50
76269;DHT22;65088;52.352;4.846;2022-11-20T02:18:04;-1.10;70.50
76269;DHT22;65088;52.352;4.846;2022-11-20T02:20:34;-1.20;70.60
76269;DHT22;65088;52.352;4.846;2022-11-20T02:23:07;-1.20;70.70
76269;DHT22;65088;52.352;4.846;2022-11-20T02:25:41;-1.10;70.70
76269;DHT22;65088;52.352;4.846;2022-11-20T02:28:11;-1.20;70.70
76269;DHT22;65088;52.352;4.846;2022-11-20T02:30:42;-1.10;70.80
76269;DHT22;65088;52.352;4.846;2022-11-20T02:33:11;-1.00;70.70
76269;DHT22;65088;52.352;4.846;2022-11-20T02:35:45;-1.00;70.80
76269;DHT22;65088;52.352;4.846;2022-11-20T02:38:15;-1.10;70.90
76269;DHT22;65088;52.352;4.846;2022-11-20T02:40:47;-1.00;70.90
76269;DHT22;65088;52.352;4.846;2022-11-20T02:43:16;-1.10;70.90
76269;DHT22;65088;52.352;4.846;2022-11-20T02:45:45;-1.10;70.90
76269;DHT22;65088;52.352;4.846;2022-11-20T02:48:14;-1.10;71.00
76269;DHT22;65088;52.352;4.846;2022-11-20T02:50:44;-1.10;71.00
76269;DHT22;65088;52.352;4.846;2022-11-20T02:53:14;-1.10;71.10
76269;DHT22;65088;52.352;4.846;2022-11-20T02:55:46;-1.10;71.10
76269;DHT22;65088;52.352;4.846;2022-11-20T02:58:15;-1.10;71.20
76269;DHT22;65088;52.352;4.846;2022-11-20T03:00:45;-1.20;71.10
76269;DHT22;65088;52.352;4.846;2022-11-20T03:03:14;-1.20;71.30
76269;DHT22;65088;52.352;4.846;2022-11-20T03:05:43;-1.20;71.30
76269;DHT22;65088;52.352;4.846;2022-11-20T03:08:15;-1.20;71.30
76269;DHT22;65088;52.352;4.846;2022-11-20T03:10:47;-1.30;71.40
76269;DHT22;65088;52.352;4.846;2022-11-20T03:13:16;-1.30;71.40
76269;DHT22;65088;52.352;4.846;2022-11-20T03:15:45;-1.30;71.60
76269;DHT22;65088;52.352;4.846;2022-11-20T03:18:15;-1.30;71.60
76269;DHT22;65088;52.352;4.846;2022-11-20T03:20:44;-1.30;71.60
76269;DHT22;65088;52.352;4.846;2022-11-20T03:23:13;-1.20;71.50
76269;DHT22;65088;52.352;4.846;2022-11-20T03:25:43;-1.20;71.60
76269;DHT22;65088;52.352;4.846;2022-11-20T03:28:15;-1.20;71.50
76269;DHT22;65088;52.352;4.846;2022-11-20T03:30:44;-1.10;71.50
76269;DHT22;65088;52.352;4.846;2022-11-20T03:33:13;-1.10;71.60
76269;DHT22;65088;52.352;4.846;2022-11-20T03:35:43;-1.10;71.60
76269;DHT22;65088;52.352;4.846;2022-11-20T03:38:12;-1.10;71.50
76269;DHT22;65088;52.352;4.846;2022-11-20T03:40:41;-1.20;71.60
76269;DHT22;65088;52.352;4.846;2022-11-20T03:43:10;-1.20;71.70
76269;DHT22;65088;52.352;4.846;2022-11-20T03:45:42;-1.10;71.60
76269;DHT22;65088;52.352;4.846;2022-11-20T03:48:11;-1.20;71.80
76269;DHT22;65088;52.352;4.846;2022-11-20T03:50:41;-1.10;71.70
76269;DHT22;65088;52.352;4.846;2022-11-20T03:53:10;-1.20;71.50
76269;DHT22;65088;52.352;4.846;2022-11-20T03:55:39;-1.20;71.60
76269;DHT22;65088;52.352;4.846;2022-11-20T03:58:08;-1.30;71.80
76269;DHT22;65088;52.352;4.846;2022-11-20T04:00:42;-1.30;71.90
76269;DHT22;65088;52.352;4.846;2022-11-20T04:03:11;-1.30;71.90
76269;DHT22;65088;52.352;4.846;2022-11-20T04:05:40;-1.30;71.80
76269;DHT22;65088;52.352;4.846;2022-11-20T04:08:10;-1.40;71.80
76269;DHT22;65088;52.352;4.846;2022-11-20T04:10:39;-1.40;71.90
76269;DHT22;65088;52.352;4.846;2022-11-20T04:13:08;-1.40;71.90
76269;DHT22;65088;52.352;4.846;2022-11-20T04:15:37;-1.50;72.00
76269;DHT22;65088;52.352;4.846;2022-11-20T04:18:09;-1.50;72.00
76269;DHT22;65088;52.352;4.846;2022-11-20T04:20:38;-1.60;72.10
76269;DHT22;65088;52.352;4.846;2022-11-20T04:23:08;-1.50;72.20
76269;DHT22;65088;52.352;4.846;2022-11-20T04:25:37;-1.50;72.30
76269;DHT22;65088;52.352;4.846;2022-11-20T04:28:06;-1.40;72.40
76269;DHT22;65088;52.352;4.846;2022-11-20T04:30:35;-1.40;72.20
76269;DHT22;65088;52.352;4.846;2022-11-20T04:33:05;-1.40;72.20
76269;DHT22;65088;52.352;4.846;2022-11-20T04:35:37;-1.40;72.20
76269;DHT22;65088;52.352;4.846;2022-11-20T04:38:06;-1.40;72.30
76269;DHT22;65088;52.352;4.846;2022-11-20T04:40:36;-1.30;72.50
76269;DHT22;65088;52.352;4.846;2022-11-20T04:43:05;-1.30;72.40
76269;DHT22;65088;52.352;4.846;2022-11-20T04:45:34;-1.20;72.10
76269;DHT22;65088;52.352;4.846;2022-11-20T04:48:04;-1.30;72.10
76269;DHT22;65088;52.352;4.846;2022-11-20T04:50:39;-1.30;72.30
76269;DHT22;65088;52.352;4.846;2022-11-20T04:53:09;-1.30;72.20
76269;DHT22;65088;52.352;4.846;2022-11-20T04:55:38;-1.30;72.30
76269;DHT22;65088;52.352;4.846;2022-11-20T04:58:07;-1.30;72.10
76269;DHT22;65088;52.352;4.846;2022-11-20T05:00:37;-1.30;72.20
76269;DHT22;65088;52.352;4.846;2022-11-20T05:03:06;-1.40;72.20
76269;DHT22;65088;52.352;4.846;2022-11-20T05:05:38;-1.40;72.10
76269;DHT22;65088;52.352;4.846;2022-11-20T05:08:07;-1.40;72.20
76269;DHT22;65088;52.352;4.846;2022-11-20T05:10:36;-1.40;72.30
76269;DHT22;65088;52.352;4.846;2022-11-20T05:13:06;-1.50;72.30
76269;DHT22;65088;52.352;4.846;2022-11-20T05:15:35;-1.40;72.40
76269;DHT22;65088;52.352;4.846;2022-11-20T05:18:04;-1.40;72.30
76269;DHT22;65088;52.352;4.846;2022-11-20T05:20:33;-1.50;72.30
76269;DHT22;65088;52.352;4.846;2022-11-20T05:23:05;-1.50;72.30
76269;DHT22;65088;52.352;4.846;2022-11-20T05:25:35;-1.50;72.40
76269;DHT22;65088;52.352;4.846;2022-11-20T05:28:04;-1.50;72.40
76269;DHT22;65088;52.352;4.846;2022-11-20T05:30:33;-1.50;72.30
76269;DHT22;65088;52.352;4.846;2022-11-20T05:33:02;-1.50;72.20
76269;DHT22;65088;52.352;4.846;2022-11-20T05:35:32;-1.50;72.20
76269;DHT22;65088;52.352;4.846;2022-11-20T05:38:01;-1.50;72.10
76269;DHT22;65088;52.352;4.846;2022-11-20T05:40:33;-1.50;72.20
76269;DHT22;65088;52.352;4.846;2022-11-20T05:43:02;-1.50;72.10
76269;DHT22;65088;52.352;4.846;2022-11-20T05:45:31;-1.60;72.20
76269;DHT22;65088;52.352;4.846;2022-11-20T05:48:01;-1.60;72.20
76269;DHT22;65088;52.352;4.846;2022-11-20T05:50:30;-1.60;72.30
76269;DHT22;65088;52.352;4.846;2022-11-20T05:53:00;-1.60;72.40
76269;DHT22;65088;52.352;4.846;2022-11-20T05:55:32;-1.50;72.40
76269;DHT22;65088;52.352;4.846;2022-11-20T05:58:01;-1.40;72.40
76269;DHT22;65088;52.352;4.846;2022-11-20T06:00:30;-1.30;72.20
76269;DHT22;65088;52.352;4.846;2022-11-20T06:03:00;-1.20;72.00
76269;DHT22;65088;52.352;4.846;2022-11-20T06:05:29;-1.20;72.00
76269;DHT22;65088;52.352;4.846;2022-11-20T06:08:00;-1.20;71.80
76269;DHT22;65088;52.352;4.846;2022-11-20T06:10:32;-1.20;71.80
76269;DHT22;65088;52.352;4.846;2022-11-20T06:13:01;-1.10;71.90
76269;DHT22;65088;52.352;4.846;2022-11-20T06:15:30;-1.10;71.90
76269;DHT22;65088;52.352;4.846;2022-11-20T06:18:00;-1.10;71.90
76269;DHT22;65088;52.352;4.846;2022-11-20T06:20:29;-1.10;71.90
76269;DHT22;65088;52.352;4.846;2022-11-20T06:22:58;-1.10;71.80
76269;DHT22;65088;52.352;4.846;2022-11-20T06:25:28;-1.10;71.90
76269;DHT22;65088;52.352;4.846;2022-11-20T06:28:00;-1.10;71.90
76269;DHT22;65088;52.352;4.846;2022-11-20T06:30:29;-1.10;71.90
76269;DHT22;65088;52.352;4.846;2022-11-20T06:32:58;-1.10;72.10
76269;DHT22;65088;52.352;4.846;2022-11-20T06:35:27;-1.10;72.10
76269;DHT22;65088;52.352;4.846;2022-11-20T06:37:57;-1.10;72.00
76269;DHT22;65088;52.352;4.846;2022-11-20T06:40:26;-1.10;72.20
76269;DHT22;65088;52.352;4.846;2022-11-20T06:42:55;-1.00;72.30
76269;DHT22;65088;52.352;4.846;2022-11-20T06:45:27;-0.90;72.10
76269;DHT22;65088;52.352;4.846;2022-11-20T06:47:57;-0.90;71.90
76269;DHT22;65088;52.352;4.846;2022-11-20T06:50:26;-0.90;71.90
76269;DHT22;65088;52.352;4.846;2022-11-20T06:52:56;-0.80;71.80
76269;DHT22;65088;52.352;4.846;2022-11-20T06:55:25;-0.90;71.70
76269;DHT22;65088;52.352;4.846;2022-11-20T06:57:54;-0.90;71.80
76269;DHT22;65088;52.352;4.846;2022-11-20T07:00:23;-0.80;71.80
76269;DHT22;65088;52.352;4.846;2022-11-20T07:02:55;-0.80;71.80
76269;DHT22;65088;52.352;4.846;2022-11-20T07:05:24;-0.80;71.70
76269;DHT22;65088;52.352;4.846;2022-11-20T07:07:55;-0.80;71.70
76269;DHT22;65088;52.352;4.846;2022-11-20T07:10:25;-0.80;71.70
76269;DHT22;65088;52.352;4.846;2022-11-20T07:12:54;-0.80;71.70
76269;DHT22;65088;52.352;4.846;2022-11-20T07:15:24;-0.70;71.90
76269;DHT22;65088;52.352;4.846;2022-11-20T07:17:58;-0.60;71.70
76269;DHT22;65088;52.352;4.846;2022-11-20T07:20:29;-0.50;71.50
76269;DHT22;65088;52.352;4.846;2022-11-20T07:22:58;-0.30;71.60
76269;DHT22;65088;52.352;4.846;2022-11-20T07:25:28;-0.20;71.40
76269;DHT22;65088;52.352;4.846;2022-11-20T07:27:58;-0.10;71.20
76269;DHT22;65088;52.352;4.846;2022-11-20T07:30:28;0.00;71.00
76269;DHT22;65088;52.352;4.846;2022-11-20T07:32:59;0.10;70.90
76269;DHT22;65088;52.352;4.846;2022-11-20T07:35:29;0.10;70.70
76269;DHT22;65088;52.352;4.846;2022-11-20T07:37:58;0.20;70.60
76269;DHT22;65088;52.352;4.846;2022-11-20T07:40:27;0.20;70.50
76269;DHT22;65088;52.352;4.846;2022-11-20T07:42:56;0.20;70.40
76269;DHT22;65088;52.352;4.846;2022-11-20T07:45:26;0.30;70.50
76269;DHT22;65088;52.352;4.846;2022-11-20T07:47:55;0.30;70.50
76269;DHT22;65088;52.352;4.846;2022-11-20T07:50:27;0.40;70.50
76269;DHT22;65088;52.352;4.846;2022-11-20T07:53:01;0.50;70.50
76269;DHT22;65088;52.352;4.846;2022-11-20T07:55:30;0.50;70.40
76269;DHT22;65088;52.352;4.846;2022-11-20T07:58:00;0.60;70.50
76269;DHT22;65088;52.352;4.846;2022-11-20T08:00:29;0.60;70.40
76269;DHT22;65088;52.352;4.846;2022-11-20T08:02:59;0.70;70.40
76269;DHT22;65088;52.352;4.846;2022-11-20T08:05:30;0.70;70.40
76269;DHT22;65088;52.352;4.846;2022-11-20T08:08:00;0.80;70.40
76269;DHT22;65088;52.352;4.846;2022-11-20T08:10:29;0.80;70.30
76269;DHT22;65088;52.352;4.846;2022-11-20T08:12:58;0.90;70.30
76269;DHT22;65088;52.352;4.846;2022-11-20T08:15:40;1.00;70.30
76269;DHT22;65088;52.352;4.846;2022-11-20T08:18:11;1.00;70.20
76269;DHT22;65088;52.352;4.846;2022-11-20T08:20:43;1.10;70.20
76269;DHT22;65088;52.352;4.846;2022-11-20T08:23:12;1.10;70.20
76269;DHT22;65088;52.352;4.846;2022-11-20T08:25:41;1.20;70.20
76269;DHT22;65088;52.352;4.846;2022-11-20T08:28:11;1.20;70.20
76269;DHT22;65088;52.352;4.846;2022-11-20T08:30:43;1.30;70.10
76269;DHT22;65088;52.352;4.846;2022-11-20T08:33:12;1.30;70.10
76269;DHT22;65088;52.352;4.846;2022-11-20T08:35:46;1.30;70.00
76269;DHT22;65088;52.352;4.846;2022-11-20T08:38:15;1.30;70.10
76269;DHT22;65088;52.352;4.846;2022-11-20T08:40:44;1.30;70.00
76269;DHT22;65088;52.352;4.846;2022-11-20T08:43:34;1.30;70.00
76269;DHT22;65088;52.352;4.846;2022-11-20T08:46:09;1.30;70.00
76269;DHT22;65088;52.352;4.846;2022-11-20T08:48:38;1.30;70.10
76269;DHT22;65088;52.352;4.846;2022-11-20T08:51:11;1.40;70.20
76269;DHT22;65088;52.352;4.846;2022-11-20T08:53:41;1.50;70.20
76269;DHT22;65088;52.352;4.846;2022-11-20T08:56:10;1.60;70.00
76269;DHT22;65088;52.352;4.846;2022-11-20T08:58:40;1.60;69.90
76269;DHT22;65088;52.352;4.846;2022-11-20T09:01:10;1.70;69.80
76269;DHT22;65088;52.352;4.846;2022-11-20T09:03:39;1.80;69.70
76269;DHT22;65088;52.352;4.846;2022-11-20T09:06:11;1.80;69.60
76269;DHT22;65088;52.352;4.846;2022-11-20T09:08:40;1.90;69.60
76269;DHT22;65088;52.352;4.846;2022-11-20T09:11:10;2.00;69.70
76269;DHT22;65088;52.352;4.846;2022-11-20T09:13:39;2.20;69.60
76269;DHT22;65088;52.352;4.846;2022-11-20T09:16:09;2.30;69.40
76269;DHT22;65088;52.352;4.846;2022-11-20T09:18:38;2.40;69.20
76269;DHT22;65088;52.352;4.846;2022-11-20T09:21:12;2.50;69.10
76269;DHT22;65088;52.352;4.846;2022-11-20T09:23:42;2.60;68.90
76269;DHT22;65088;52.352;4.846;2022-11-20T09:26:13;2.70;68.90
76269;DHT22;65088;52.352;4.846;2022-11-20T09:28:42;2.70;68.90
76269;DHT22;65088;52.352;4.846;2022-11-20T09:31:19;2.80;68.60
76269;DHT22;65088;52.352;4.846;2022-11-20T09:33:50;2.80;68.30
76269;DHT22;65088;52.352;4.846;2022-11-20T09:36:22;2.90;68.10
76269;DHT22;65088;52.352;4.846;2022-11-20T09:38:52;2.90;68.10
76269;DHT22;65088;52.352;4.846;2022-11-20T09:44:27;3.00;67.50
76269;DHT22;65088;52.352;4.846;2022-11-20T09:46:58;3.00;67.30
76269;DHT22;65088;52.352;4.846;2022-11-20T09:49:49;3.00;67.20
76269;DHT22;65088;52.352;4.846;2022-11-20T09:52:32;2.90;67.20
76269;DHT22;65088;52.352;4.846;2022-11-20T09:55:09;2.80;67.30
76269;DHT22;65088;52.352;4.846;2022-11-20T09:57:42;2.80;67.40
76269;DHT22;65088;52.352;4.846;2022-11-20T10:00:14;2.80;67.50
76269;DHT22;65088;52.352;4.846;2022-11-20T10:02:48;2.80;67.20
76269;DHT22;65088;52.352;4.846;2022-11-20T10:05:23;2.80;67.40
76269;DHT22;65088;52.352;4.846;2022-11-20T10:08:06;2.80;67.50
76269;DHT22;65088;52.352;4.846;2022-11-20T10:10:42;2.90;67.50
76269;DHT22;65088;52.352;4.846;2022-11-20T10:13:24;3.00;67.60
76269;DHT22;65088;52.352;4.846;2022-11-20T10:16:07;3.10;67.60
76269;DHT22;65088;52.352;4.846;2022-11-20T10:18:48;3.20;67.50
76269;DHT22;65088;52.352;4.846;2022-11-20T10:21:26;3.40;67.30
76269;DHT22;65088;52.352;4.846;2022-11-20T10:24:17;3.50;67.10
76269;DHT22;65088;52.352;4.846;2022-11-20T10:26:51;3.60;67.10
76269;DHT22;65088;52.352;4.846;2022-11-20T10:29:29;3.70;67.20
76269;DHT22;65088;52.352;4.846;2022-11-20T10:32:03;3.80;67.00
76269;DHT22;65088;52.352;4.846;2022-11-20T10:34:38;3.90;66.90
76269;DHT22;65088;52.352;4.846;2022-11-20T10:37:15;4.00;66.70
76269;DHT22;65088;52.352;4.846;2022-11-20T10:39:54;4.00;66.60
76269;DHT22;65088;52.352;4.846;2022-11-20T10:42:30;3.90;66.70
76269;DHT22;65088;52.352;4.846;2022-11-20T10:45:11;3.90;66.70
76269;DHT22;65088;52.352;4.846;2022-11-20T10:47:42;4.00;66.80
76269;DHT22;65088;52.352;4.846;2022-11-20T10:50:15;4.00;66.80
76269;DHT22;65088;52.352;4.846;2022-11-20T10:52:53;4.00;66.80
76269;DHT22;65088;52.352;4.846;2022-11-20T10:55:33;4.10;67.00
76269;DHT22;65088;52.352;4.846;2022-11-20T10:58:11;4.10;66.80
76269;DHT22;65088;52.352;4.846;2022-11-20T11:00:45;4.10;66.90
76269;DHT22;65088;52.352;4.846;2022-11-20T11:03:24;4.10;66.70
76269;DHT22;65088;52.352;4.846;2022-11-20T11:06:00;4.00;66.70
76269;DHT22;65088;52.352;4.846;2022-11-20T11:08:35;4.00;66.90
76269;DHT22;65088;52.352;4.846;2022-11-20T11:11:21;4.10;67.10
76269;DHT22;65088;52.352;4.846;2022-11-20T11:13:51;4.00;66.90
76269;DHT22;65088;52.352;4.846;2022-11-20T11:16:23;4.10;66.90
76269;DHT22;65088;52.352;4.846;2022-11-20T11:19:03;4.10;66.90
76269;DHT22;65088;52.352;4.846;2022-11-20T11:21:33;4.10;66.80
76269;DHT22;65088;52.352;4.846;2022-11-20T11:24:19;4.10;67.00
76269;DHT22;65088;52.352;4.846;2022-11-20T11:26:59;4.10;67.20
76269;DHT22;65088;52.352;4.846;2022-11-20T11:29:31;4.20;67.20
76269;DHT22;65088;52.352;4.846;2022-11-20T11:32:04;4.30;67.20
76269;DHT22;65088;52.352;4.846;2022-11-20T11:34:35;4.40;67.20
76269;DHT22;65088;52.352;4.846;2022-11-20T11:37:05;4.40;67.30
76269;DHT22;65088;52.352;4.846;2022-11-20T11:39:41;4.50;67.40
76269;DHT22;65088;52.352;4.846;2022-11-20T11:42:17;4.50;67.40
76269;DHT22;65088;52.352;4.846;2022-11-20T11:44:48;4.60;67.40
76269;DHT22;65088;52.352;4.846;2022-11-20T11:47:31;4.60;67.60
76269;DHT22;65088;52.352;4.846;2022-11-20T11:50:13;4.60;67.70
76269;DHT22;65088;52.352;4.846;2022-11-20T11:52:45;4.60;67.80
76269;DHT22;65088;52.352;4.846;2022-11-20T11:55:21;4.70;67.80
76269;DHT22;65088;52.352;4.846;2022-11-20T11:58:09;4.60;67.70
76269;DHT22;65088;52.352;4.846;2022-11-20T12:00:45;4.60;67.90
76269;DHT22;65088;52.352;4.846;2022-11-20T12:03:19;4.70;67.90
76269;DHT22;65088;52.352;4.846;2022-11-20T12:05:57;4.60;68.00
76269;DHT22;65088;52.352;4.846;2022-11-20T12:08:31;4.60;68.20
76269;DHT22;65088;52.352;4.846;2022-11-20T12:11:04;4.60;68.30
76269;DHT22;65088;52.352;4.846;2022-11-20T12:13:42;4.60;68.40
76269;DHT22;65088;52.352;4.846;2022-11-20T12:16:14;4.70;68.50
76269;DHT22;65088;52.352;4.846;2022-11-20T12:18:46;4.80;68.70
76269;DHT22;65088;52.352;4.846;2022-11-20T12:21:25;4.80;68.90
76269;DHT22;65088;52.352;4.846;2022-11-20T12:24:15;4.90;68.90
76269;DHT22;65088;52.352;4.846;2022-11-20T12:26:57;5.00;69.10
76269;DHT22;65088;52.352;4.846;2022-11-20T12:29:43;5.00;69.20
76269;DHT22;65088;52.352;4.846;2022-11-20T12:35:38;5.10;69.30
76269;DHT22;65088;52.352;4.846;2022-11-20T12:38:39;5.10;69.60
76269;DHT22;65088;52.352;4.846;2022-11-20T12:41:22;5.10;69.60
76269;DHT22;65088;52.352;4.846;2022-11-20T12:44:18;5.10;69.60
76269;DHT22;65088;52.352;4.846;2022-11-20T12:47:16;5.10;69.80
76269;DHT22;65088;52.352;4.846;2022-11-20T12:49:52;5.00;70.00
76269;DHT22;65088;52.352;4.846;2022-11-20T12:52:35;5.00;70.20
76269;DHT22;65088;52.352;4.846;2022-11-20T12:57:54;5.00;70.50
76269;DHT22;65088;52.352;4.846;2022-11-20T13:00:26;5.00;70.70
76269;DHT22;65088;52.352;4.846;2022-11-20T13:03:21;5.00;70.70
76269;DHT22;65088;52.352;4.846;2022-11-20T13:06:00;5.10;70.80
76269;DHT22;65088;52.352;4.846;2022-11-20T13:08:35;5.10;70.80
76269;DHT22;65088;52.352;4.846;2022-11-20T13:11:13;5.00;70.70
76269;DHT22;65088;52.352;4.846;2022-11-20T13:13:52;4.90;70.80
76269;DHT22;65088;52.352;4.846;2022-11-20T13:16:32;4.90;70.80
76269;DHT22;65088;52.352;4.846;2022-11-20T13:19:10;4.90;71.00
76269;DHT22;65088;52.352;4.846;2022-11-20T13:21:42;5.00;71.10
76269;DHT22;65088;52.352;4.846;2022-11-20T13:24:24;5.10;71.00
76269;DHT22;65088;52.352;4.846;2022-11-20T13:27:01;5.00;70.90
76269;DHT22;65088;52.352;4.846;2022-11-20T13:29:31;5.00;71.10
76269;DHT22;65088;52.352;4.846;2022-11-20T13:32:04;5.00;71.20
76269;DHT22;65088;52.352;4.846;2022-11-20T13:34:36;4.90;71.60
76269;DHT22;65088;52.352;4.846;2022-11-20T13:37:05;4.90;71.70
76269;DHT22;65088;52.352;4.846;2022-11-20T13:39:36;4.90;71.80
76269;DHT22;65088;52.352;4.846;2022-11-20T13:42:21;4.80;72.10
76269;DHT22;65088;52.352;4.846;2022-11-20T13:44:55;4.70;72.20
76269;DHT22;65088;52.352;4.846;2022-11-20T13:47:26;4.60;72.30
76269;DHT22;65088;52.352;4.846;2022-11-20T13:49:59;4.60;72.50
76269;DHT22;65088;52.352;4.846;2022-11-20T13:52:37;4.60;72.40
76269;DHT22;65088;52.352;4.846;2022-11-20T13:55:16;4.50;72.50
76269;DHT22;65088;52.352;4.846;2022-11-20T13:58:15;4.60;72.90
76269;DHT22;65088;52.352;4.846;2022-11-20T14:00:51;4.60;73.00
76269;DHT22;65088;52.352;4.846;2022-11-20T14:03:25;4.60;73.00
76269;DHT22;65088;52.352;4.846;2022-11-20T14:06:02;4.70;73.20
76269;DHT22;65088;52.352;4.846;2022-11-20T14:08:36;4.80;73.30
76269;DHT22;65088;52.352;4.846;2022-11-20T14:11:15;4.80;73.30
76269;DHT22;65088;52.352;4.846;2022-11-20T14:14:00;4.80;73.40
76269;DHT22;65088;52.352;4.846;2022-11-20T14:16:31;4.80;73.50
76269;DHT22;65088;52.352;4.846;2022-11-20T14:19:25;4.80;73.60
76269;DHT22;65088;52.352;4.846;2022-11-20T14:22:14;4.80;73.50
76269;DHT22;65088;52.352;4.846;2022-11-20T14:24:46;4.80;73.50
76269;DHT22;65088;52.352;4.846;2022-11-20T14:27:17;4.80;73.60
76269;DHT22;65088;52.352;4.846;2022-11-20T14:29:49;4.70;73.70
76269;DHT22;65088;52.352;4.846;2022-11-20T14:32:20;4.70;73.80
76269;DHT22;65088;52.352;4.846;2022-11-20T14:34:51;4.70;73.70
76269;DHT22;65088;52.352;4.846;2022-11-20T14:37:24;4.70;73.80
76269;DHT22;65088;52.352;4.846;2022-11-20T14:39:55;4.70;73.80
76269;DHT22;65088;52.352;4.846;2022-11-20T14:42:26;4.80;74.00
76269;DHT22;65088;52.352;4.846;2022-11-20T14:44:59;4.70;73.90
76269;DHT22;65088;52.352;4.846;2022-11-20T14:47:30;4.70;74.00
76269;DHT22;65088;52.352;4.846;2022-11-20T14:50:01;4.70;74.10
76269;DHT22;65088;52.352;4.846;2022-11-20T14:52:33;4.70;74.20
76269;DHT22;65088;52.352;4.846;2022-11-20T14:55:02;4.60;74.20
76269;DHT22;65088;52.352;4.846;2022-11-20T14:57:34;4.60;74.30
76269;DHT22;65088;52.352;4.846;2022-11-20T15:00:18;4.60;74.40
76269;DHT22;65088;52.352;4.846;2022-11-20T15:02:49;4.70;74.60
76269;DHT22;65088;52.352;4.846;2022-11-20T15:05:20;4.70;74.50
76269;DHT22;65088;52.352;4.846;2022-11-20T15:08:06;4.70;74.50
76269;DHT22;65088;52.352;4.846;2022-11-20T15:10:37;4.70;74.50
76269;DHT22;65088;52.352;4.846;2022-11-20T15:13:15;4.70;74.50
76269;DHT22;65088;52.352;4.846;2022-11-20T15:15:47;4.80;74.50
76269;DHT22;65088;52.352;4.846;2022-11-20T15:18:18;4.80;74.70
76269;DHT22;65088;52.352;4.846;2022-11-20T15:20:48;4.80;74.50
76269;DHT22;65088;52.352;4.846;2022-11-20T15:23:20;4.80;74.50
76269;DHT22;65088;52.352;4.846;2022-11-20T15:25:50;4.90;74.60
76269;DHT22;65088;52.352;4.846;2022-11-20T15:28:22;4.90;74.70
76269;DHT22;65088;52.352;4.846;2022-11-20T15:30:52;4.90;74.80
76269;DHT22;65088;52.352;4.846;2022-11-20T15:33:22;4.90;74.80
76269;DHT22;65088;52.352;4.846;2022-11-20T15:35:51;4.90;74.90
76269;DHT22;65088;52.352;4.846;2022-11-20T15:38:23;4.90;74.90
76269;DHT22;65088;52.352;4.846;2022-11-20T15:40:52;5.00;74.90
76269;DHT22;65088;52.352;4.846;2022-11-20T15:43:22;5.00;75.00
76269;DHT22;65088;52.352;4.846;2022-11-20T15:45:53;5.00;75.00
76269;DHT22;65088;52.352;4.846;2022-11-20T15:48:27;5.00;75.20
76269;DHT22;65088;52.352;4.846;2022-11-20T15:50:58;5.10;75.10
76269;DHT22;65088;52.352;4.846;2022-11-20T15:53:31;5.10;75.10
76269;DHT22;65088;52.352;4.846;2022-11-20T15:56:00;5.10;75.20
76269;DHT22;65088;52.352;4.846;2022-11-20T15:58:30;5.20;75.20
76269;DHT22;65088;52.352;4.846;2022-11-20T16:00:59;5.20;75.20
76269;DHT22;65088;52.352;4.846;2022-11-20T16:03:28;5.30;75.10
76269;DHT22;65088;52.352;4.846;2022-11-20T16:05:58;5.30;75.10
76269;DHT22;65088;52.352;4.846;2022-11-20T16:08:30;5.30;75.10
76269;DHT22;65088;52.352;4.846;2022-11-20T16:10:59;5.30;75.00
76269;DHT22;65088;52.352;4.846;2022-11-20T16:13:31;5.30;75.00
76269;DHT22;65088;52.352;4.846;2022-11-20T16:16:19;5.30;75.00
76269;DHT22;65088;52.352;4.846;2022-11-20T16:18:50;5.30;74.90
76269;DHT22;65088;52.352;4.846;2022-11-20T16:21:19;5.30;75.00
76269;DHT22;65088;52.352;4.846;2022-11-20T16:23:57;5.30;75.00